Latest Weather Observations for Creal Reef

IDQ60801

Issued at 8:32 pm EST Monday 2 May 2016 (issued every 30 minutes, with the page automatically refreshed every 10 minutes)

About weather observations | Map of weather stations | Latest weather observations for QLD | Other Formats
Station Details ID: 200736 Name: CREAL REEF Lat: -20.53 Lon: 150.38 Height: 1.7 m
Data from the previous 72 hours. | See also: Recent months for locations in Queensland
Date/Time
EST
Temp
°C
App
Temp
°C
Dew
Point
Rel
Hum
%
Delta-T
°C
Wind Press
QNH
hPa
Press
MSL
hPa
Rain
since 9 am
mm
Dir
 
Spd
km/h
Gust
km/h
Spd
kts
Gust
kts
01/11:30pm 26.5 - - - - E 19 20 10 11 - - -
01/11:20pm 26.6 - - - - E 19 - 10 - - - -
01/11:00pm 26.5 - - - - E 20 24 11 13 - - -
01/10:30pm 26.5 - - - - E 20 22 11 12 - - -
01/10:20pm 26.6 - - - - E 22 - 12 - - - -
01/10:00pm 26.6 - - - - E 22 24 12 13 - - -
01/09:30pm 26.6 - - - - E 24 26 13 14 - - -
01/09:20pm 26.8 - - - - ESE 24 - 13 - - - -
01/09:00pm 26.7 - - - - ESE 22 26 12 14 - - -
01/08:30pm 26.6 - - - - ESE 22 26 12 14 - - -
01/08:20pm 26.7 - - - - ESE 22 - 12 - - - -
01/07:30pm 26.7 - - - - SE 20 22 11 12 - - -
01/07:00pm 26.8 - - - - ESE 19 20 10 11 - - -
01/06:30pm 26.7 - - - - SE 17 20 9 11 - - -
01/06:00pm 26.7 - - - - SE 17 19 9 10 - - -
01/05:30pm 26.7 - - - - SE 17 19 9 10 - - -
01/05:20pm 26.8 - - - - SE 15 - 8 - - - -
01/05:00pm 26.9 - - - - SE 13 15 7 8 - - -
01/04:30pm 26.9 - - - - SE 13 15 7 8 - - -
01/04:20pm 27.1 - - - - SSE 13 - 7 - - - -
01/04:00pm 26.9 - - - - SE 13 15 7 8 - - -
01/03:30pm 26.9 - - - - ESE 13 15 7 8 - - -
01/03:20pm 26.9 - - - - ESE 13 - 7 - - - -
01/03:00pm 26.8 - - - - SE 13 15 7 8 - - -
01/02:30pm 27.0 - - - - ESE 9 11 5 6 - - -
01/02:20pm 27.0 - - - - ESE 9 - 5 - - - -
01/02:00pm 27.1 - - - - ESE 9 11 5 6 - - -
01/01:30pm 27.1 - - - - SE 11 13 6 7 - - -
01/01:20pm 27.0 - - - - ESE 11 - 6 - - - -
01/01:00pm 27.0 - - - - ESE 11 13 6 7 - - -
01/12:30pm 27.0 - - - - ESE 11 13 6 7 - - -
01/12:20pm 27.0 - - - - ESE 13 - 7 - - - -
01/12:00pm 26.9 - - - - ESE 15 17 8 9 - - -
01/11:30am 26.9 - - - - ESE 15 17 8 9 - - -
01/11:20am 27.0 - - - - ESE 15 - 8 - - - -
01/11:00am 27.2 - - - - E 17 19 9 10 - - -
01/10:30am 27.2 - - - - ESE 15 19 8 10 - - -
01/10:20am 27.0 - - - - ESE 17 - 9 - - - -
01/10:00am 26.9 - - - - ESE 15 17 8 9 - - -
01/09:30am 26.9 - - - - ESE 13 15 7 8 - - -
01/09:20am 26.8 - - - - ESE 15 - 8 - - - -
01/09:00am 26.8 - - - - ESE 13 15 7 8 - - -
01/08:30am 26.9 - - - - ESE 15 19 8 10 - - -
01/08:20am 27.0 - - - - ESE 13 - 7 - - - -
01/08:00am 26.9 - - - - E 15 17 8 9 - - -
01/07:30am 26.7 - - - - ESE 17 20 9 11 - - -
01/07:20am 26.8 - - - - ESE 17 - 9 - - - -
01/07:00am 26.5 - - - - ESE 20 22 11 12 - - -
01/06:30am 26.4 - - - - ESE 19 20 10 11 - - -
01/06:00am 26.5 - - - - ESE 19 20 10 11 - - -
01/05:30am 26.3 - - - - ESE 19 20 10 11 - - -
01/05:00am 26.4 - - - - ESE 19 20 10 11 - - -
01/04:30am 26.5 - - - - ESE 19 20 10 11 - - -
01/04:00am 26.4 - - - - ESE 19 24 10 13 - - -
01/03:30am 26.3 - - - - ESE 22 24 12 13 - - -
01/03:00am 26.3 - - - - ESE 24 26 13 14 - - -
01/02:30am 26.4 - - - - SE 20 24 11 13 - - -
01/02:00am 26.4 - - - - SE 22 24 12 13 - - -
01/01:30am 26.4 - - - - ESE 22 24 12 13 - - -
01/01:00am 26.4 - - - - SE 20 24 11 13 - - -
01/12:30am 26.3 - - - - SE 22 24 12 13 - - -
01/12:00am 26.4 - - - - SE 24 26 13 14 - - -
 
Date/Time
EST
Temp
°C
App
Temp
°C
Dew
Point
Rel
Hum
%
Delta-T
°C
Wind Press
QNH
hPa
Press
MSL
hPa
Rain
since 9 am
mm
Dir
 
Spd
km/h
Gust
km/h
Spd
kts
Gust
kts
30/11:30pm 26.4 - - - - SE 24 28 13 15 - - -
30/11:00pm 26.4 - - - - SE 26 30 14 16 - - -
30/10:30pm 26.5 - - - - SE 24 28 13 15 - - -
30/10:00pm 26.6 - - - - SE 24 28 13 15 - - -
30/09:30pm 26.4 - - - - SE 26 30 14 16 - - -
30/09:20pm 26.6 - - - - SE 24 - 13 - - - -
30/09:00pm 26.5 - - - - SE 24 28 13 15 - - -
30/08:30pm 26.5 - - - - SE 24 28 13 15 - - -
30/08:20pm 26.6 - - - - SE 26 - 14 - - - -
30/08:00pm 26.6 - - - - SE 26 28 14 15 - - -
30/07:30pm 26.4 - - - - SE 24 28 13 15 - - -
30/07:20pm 26.6 - - - - SE 24 - 13 - - - -
30/07:00pm 26.5 - - - - SE 26 30 14 16 - - -
30/06:30pm 26.5 - - - - SE 26 28 14 15 - - -
30/06:20pm 26.5 - - - - SE 24 - 13 - - - -
30/06:00pm 26.6 - - - - SE 24 28 13 15 - - -
30/05:30pm 26.6 - - - - SE 26 28 14 15 - - -
30/05:20pm 26.6 - - - - SE 24 - 13 - - - -
30/05:00pm 26.5 - - - - SE 24 28 13 15 - - -
30/04:30pm 26.6 - - - - SE 24 30 13 16 - - -
30/04:20pm 26.6 - - - - SE 24 - 13 - - - -
30/04:00pm 26.6 - - - - SE 24 30 13 16 - - -
30/03:30pm 26.6 - - - - ESE 24 26 13 14 - - -
30/03:20pm 26.6 - - - - ESE 24 - 13 - - - -
30/03:00pm 26.7 - - - - ESE 26 28 14 15 - - -
30/02:30pm 26.7 - - - - SE 26 30 14 16 - - -
30/02:20pm 26.7 - - - - SE 26 - 14 - - - -
30/02:00pm 26.5 - - - - SE 26 32 14 17 - - -
30/01:30pm 26.6 - - - - SE 28 30 15 16 - - -
30/01:20pm 26.5 - - - - SE 28 - 15 - - - -
30/01:00pm 26.7 - - - - SE 28 32 15 17 - - -
30/12:30pm 26.5 - - - - SE 28 32 15 17 - - -
30/12:20pm 26.8 - - - - SE 28 - 15 - - - -
30/12:00pm 26.6 - - - - SSE 26 30 14 16 - - -
30/11:30am 26.7 - - - - SE 28 30 15 16 - - -
30/11:20am 26.8 - - - - SE 28 - 15 - - - -
30/11:00am 26.7 - - - - SE 26 30 14 16 - - -
30/10:30am 26.7 - - - - SE 26 30 14 16 - - -
30/10:20am 26.7 - - - - SE 24 - 13 - - - -
30/10:00am 26.6 - - - - SE 26 30 14 16 - - -
30/09:30am 26.7 - - - - SE 26 30 14 16 - - -
30/09:20am 26.8 - - - - SE 26 - 14 - - - -
30/09:00am 26.6 - - - - SE 26 30 14 16 - - -
30/08:30am 26.7 - - - - SE 24 28 13 15 - - -
30/08:00am 26.5 - - - - SE 24 28 13 15 - - -
30/07:20am 26.4 - - - - ESE 28 - 15 - - - -
30/07:00am 26.4 - - - - SE 26 30 14 16 - - -
30/06:30am 26.3 - - - - SE 28 30 15 16 - - -

Other Formats:

Comma delimited format used in spreadsheet applications
http://www.bom.gov.au/fwo/IDQ60801/IDQ60801.94371.axf

JavaScript Object Notation format (JSON) in row-major order
http://www.bom.gov.au/fwo/IDQ60801/IDQ60801.94371.json